createdAt,value
2019-01-11T00:00:49.550Z,78.59
2019-01-11T00:03:17.976Z,78.73
2019-01-11T00:05:46.718Z,78.69
2019-01-11T00:08:15.116Z,78.77
2019-01-11T00:10:43.648Z,78.70
2019-01-11T00:13:12.107Z,78.62
2019-01-11T00:15:40.496Z,78.67
2019-01-11T00:18:09.145Z,78.47
2019-01-11T00:20:37.918Z,78.53
2019-01-11T00:23:06.368Z,78.62
2019-01-11T00:25:35.085Z,78.61
2019-01-11T00:28:03.819Z,78.75
2019-01-11T00:30:32.208Z,78.92
2019-01-11T00:33:00.597Z,78.99
2019-01-11T00:35:29.231Z,79.03
2019-01-11T00:37:57.637Z,79.05
2019-01-11T00:40:26.286Z,79.01
2019-01-11T00:42:54.960Z,78.88
2019-01-11T00:45:23.434Z,78.79
2019-01-11T00:47:51.939Z,78.82
2019-01-11T00:50:22.434Z,78.81
2019-01-11T00:52:50.815Z,78.67
2019-01-11T00:55:19.218Z,78.29
2019-01-11T00:57:47.601Z,78.24
2019-01-11T01:00:19.516Z,78.40
2019-01-11T01:02:48.200Z,78.48
2019-01-11T01:05:16.922Z,78.26
2019-01-11T01:07:45.386Z,78.43
2019-01-11T01:10:14.021Z,78.54
2019-01-11T01:12:42.412Z,78.18
2019-01-11T01:15:12.205Z,78.00
2019-01-11T01:17:40.841Z,78.16
2019-01-11T01:20:14.808Z,77.98
2019-01-11T01:22:43.433Z,78.16
2019-01-11T01:25:12.337Z,78.31
2019-01-11T01:27:41.179Z,78.29
2019-01-11T01:30:12.655Z,78.36
2019-01-11T01:32:41.087Z,78.10
2019-01-11T01:35:09.756Z,78.22
2019-01-11T01:37:38.225Z,78.26
2019-01-11T01:40:10.253Z,77.97
2019-01-11T01:42:38.674Z,78.08
2019-01-11T01:45:10.604Z,78.38
2019-01-11T01:47:38.988Z,78.57
2019-01-11T01:50:10.347Z,78.74
2019-01-11T01:52:38.836Z,78.83
2019-01-11T01:55:10.155Z,79.05
2019-01-11T01:57:38.723Z,79.09
2019-01-11T02:00:13.222Z,79.00
2019-01-11T02:02:42.051Z,79.04
2019-01-11T02:05:11.213Z,79.02
2019-01-11T02:07:40.005Z,79.07
2019-01-11T02:10:11.201Z,79.09
2019-01-11T02:12:39.661Z,79.02
2019-01-11T02:15:10.148Z,78.96
2019-01-11T02:17:38.718Z,78.89
2019-01-11T02:20:10.516Z,79.02
2019-01-11T02:22:38.891Z,79.09
2019-01-11T02:25:08.134Z,79.05
2019-01-11T02:27:36.590Z,79.14
2019-01-11T02:30:08.305Z,79.27
2019-01-11T02:32:36.989Z,79.30
2019-01-11T02:35:06.064Z,79.46
2019-01-11T02:37:34.447Z,79.49
2019-01-11T02:40:03.764Z,79.48
2019-01-11T02:42:32.447Z,79.39
2019-01-11T02:45:00.840Z,79.47
2019-01-11T02:47:29.247Z,79.53
2019-01-11T02:49:57.890Z,79.48
2019-01-11T02:52:26.367Z,79.40
2019-01-11T02:54:54.833Z,79.47
2019-01-11T02:57:23.366Z,79.43
2019-01-11T02:59:51.766Z,79.40
2019-01-11T03:02:20.155Z,79.49
2019-01-11T03:04:48.800Z,79.49
2019-01-11T03:07:17.199Z,79.42
2019-01-11T03:09:45.575Z,79.30
2019-01-11T03:12:14.225Z,79.18
2019-01-11T03:14:42.623Z,79.18
2019-01-11T03:17:11.398Z,79.29
2019-01-11T03:19:47.555Z,79.24
2019-01-11T03:22:10.445Z,79.44
2019-01-11T03:24:38.911Z,79.25
2019-01-11T03:27:07.396Z,79.35
2019-01-11T03:29:35.838Z,79.48
2019-01-11T03:32:04.349Z,79.62
2019-01-11T03:34:34.387Z,79.66
2019-01-11T03:37:03.028Z,79.70
2019-01-11T03:39:31.726Z,79.68
2019-01-11T03:42:01.774Z,79.69
2019-01-11T03:44:30.165Z,79.30
2019-01-11T03:46:58.715Z,79.42
2019-01-11T03:49:27.382Z,79.61
2019-01-11T03:51:56.096Z,79.76
2019-01-11T03:54:24.758Z,79.83
2019-01-11T03:56:53.763Z,79.75
2019-01-11T03:59:22.166Z,79.83
2019-01-11T04:01:50.601Z,79.80
2019-01-11T04:04:19.403Z,79.91
2019-01-11T04:06:48.086Z,80.04
2019-01-11T04:09:16.768Z,80.03
2019-01-11T04:11:45.461Z,80.14
2019-01-11T04:14:13.855Z,80.25
2019-01-11T04:16:42.253Z,80.30
2019-01-11T04:19:12.236Z,80.20
2019-01-11T04:21:42.255Z,80.28
2019-01-11T04:24:10.648Z,80.20
2019-01-11T04:26:39.315Z,80.24
2019-01-11T04:29:07.785Z,80.39
2019-01-11T04:31:36.209Z,80.39
2019-01-11T04:34:04.572Z,80.33
2019-01-11T04:36:33.244Z,80.36
2019-01-11T04:39:01.925Z,80.28
2019-01-11T04:41:30.315Z,80.28
2019-01-11T04:43:58.871Z,80.18
2019-01-11T04:46:27.791Z,80.36
2019-01-11T04:48:56.174Z,80.50
2019-01-11T04:51:24.949Z,80.67
2019-01-11T04:53:53.636Z,80.63
2019-01-11T04:56:22.045Z,80.60
2019-01-11T04:58:50.431Z,80.67
2019-01-11T05:01:18.831Z,80.72
2019-01-11T05:03:47.583Z,80.69
2019-01-11T05:06:16.344Z,80.82
2019-01-11T05:08:44.959Z,80.79
2019-01-11T05:11:14.716Z,80.79
2019-01-11T05:13:43.130Z,80.80
2019-01-11T05:16:11.913Z,80.83
2019-01-11T05:18:40.290Z,80.91
2019-01-11T05:21:08.980Z,80.79
2019-01-11T05:23:37.675Z,80.91
2019-01-11T05:26:06.063Z,80.80
2019-01-11T05:28:34.450Z,80.91
2019-01-11T05:31:02.887Z,80.88
2019-01-11T05:33:31.347Z,80.93
2019-01-11T05:35:59.742Z,81.02
2019-01-11T05:38:28.118Z,81.07
2019-01-11T05:40:56.523Z,81.00
2019-01-11T05:43:24.900Z,80.98
2019-01-11T05:45:53.614Z,80.96
2019-01-11T05:48:22.044Z,81.04
2019-01-11T05:50:50.530Z,81.00
2019-01-11T05:53:19.579Z,80.98
2019-01-11T05:55:48.432Z,81.01
2019-01-11T05:58:24.521Z,81.05
2019-01-11T06:00:53.094Z,81.17
2019-01-11T06:03:21.768Z,81.05
2019-01-11T06:05:50.179Z,81.00
2019-01-11T06:08:19.833Z,81.04
2019-01-11T06:10:48.241Z,80.95
2019-01-11T06:13:16.647Z,80.88
2019-01-11T06:15:45.495Z,80.93
2019-01-11T06:18:13.954Z,80.95
2019-01-11T06:20:42.342Z,81.03
2019-01-11T06:23:10.832Z,81.12
2019-01-11T06:25:39.216Z,80.98
2019-01-11T06:28:07.622Z,80.96
2019-01-11T06:30:36.008Z,81.05
2019-01-11T06:33:04.462Z,81.10
2019-01-11T06:35:32.860Z,81.12
2019-01-11T06:38:01.254Z,81.10
2019-01-11T06:40:29.898Z,81.09
2019-01-11T06:43:03.485Z,81.04
2019-01-11T06:45:28.701Z,81.04
2019-01-11T06:47:57.167Z,80.93
2019-01-11T06:50:25.552Z,80.98
2019-01-11T06:52:55.446Z,80.88
2019-01-11T06:55:24.014Z,80.83
2019-01-11T06:57:52.649Z,80.77
2019-01-11T07:00:21.185Z,80.91
2019-01-11T07:02:49.566Z,80.96
2019-01-11T07:05:17.964Z,80.98
2019-01-11T07:07:46.364Z,80.93
2019-01-11T07:10:22.981Z,81.17
2019-01-11T07:12:51.839Z,81.30
2019-01-11T07:15:20.519Z,81.34
2019-01-11T07:17:48.903Z,81.20
2019-01-11T07:20:17.616Z,81.19
2019-01-11T07:22:46.002Z,81.09
2019-01-11T07:25:15.727Z,81.09
2019-01-11T07:27:45.756Z,81.18
2019-01-11T07:30:15.895Z,81.21
2019-01-11T07:32:44.359Z,81.24
2019-01-11T07:35:13.490Z,81.28
2019-01-11T07:37:41.899Z,81.39
2019-01-11T07:40:12.324Z,81.45
2019-01-11T07:42:40.997Z,81.44
2019-01-11T07:45:11.816Z,81.28
2019-01-11T07:47:40.201Z,81.19
2019-01-11T07:50:09.943Z,81.11
2019-01-11T07:52:40.039Z,81.04
2019-01-11T07:55:09.808Z,81.06
2019-01-11T07:57:38.523Z,81.09
2019-01-11T08:00:11.830Z,81.14
2019-01-11T08:02:40.957Z,81.04
2019-01-11T08:05:09.500Z,81.14
2019-01-11T08:07:38.059Z,81.14
2019-01-11T08:10:12.146Z,81.14
2019-01-11T08:12:40.541Z,81.12
2019-01-11T08:15:14.402Z,81.15
2019-01-11T08:17:43.074Z,81.19
2019-01-11T08:20:11.702Z,81.12
2019-01-11T08:22:41.377Z,81.19
2019-01-11T08:25:11.300Z,81.26
2019-01-11T08:27:40.068Z,81.20
2019-01-11T08:30:14.517Z,81.27
2019-01-11T08:32:42.972Z,81.21
2019-01-11T08:35:13.193Z,81.26
2019-01-11T08:37:41.661Z,81.22
2019-01-11T08:40:12.207Z,81.24
2019-01-11T08:42:40.854Z,81.21
2019-01-11T08:45:14.163Z,81.27
2019-01-11T08:47:42.625Z,81.32
2019-01-11T08:50:19.694Z,81.44
2019-01-11T08:52:48.077Z,81.40
2019-01-11T08:55:16.717Z,81.43
2019-01-11T08:57:45.482Z,81.56
2019-01-11T09:00:17.248Z,81.49
2019-01-11T09:02:45.880Z,81.35
2019-01-11T09:05:14.497Z,81.33
2019-01-11T09:07:42.880Z,81.26
2019-01-11T09:10:14.505Z,81.12
2019-01-11T09:12:42.962Z,81.33
2019-01-11T09:15:11.564Z,81.35
2019-01-11T09:17:41.590Z,81.30
2019-01-11T09:20:09.979Z,81.28
2019-01-11T09:22:38.368Z,81.29
2019-01-11T09:25:06.990Z,81.24
2019-01-11T09:27:35.373Z,81.09
2019-01-11T09:30:05.502Z,81.29
2019-01-11T09:32:33.900Z,81.38
2019-01-11T09:35:02.301Z,81.56
2019-01-11T09:37:31.031Z,81.69
2019-01-11T09:39:59.410Z,81.84
2019-01-11T09:42:27.831Z,81.90
2019-01-11T09:44:56.222Z,81.69
2019-01-11T09:47:25.164Z,81.89
2019-01-11T09:49:53.844Z,82.06
2019-01-11T09:52:22.231Z,82.08
2019-01-11T09:54:50.905Z,81.96
2019-01-11T09:57:19.595Z,81.94
2019-01-11T09:59:47.994Z,82.04
2019-01-11T10:02:23.734Z,82.07
2019-01-11T10:04:52.412Z,81.98
2019-01-11T10:07:27.870Z,81.78
2019-01-11T10:09:56.252Z,81.83
2019-01-11T10:12:25.024Z,81.84
2019-01-11T10:14:53.710Z,82.29
2019-01-11T10:17:22.401Z,82.20
2019-01-11T10:19:51.082Z,82.26
2019-01-11T10:22:19.471Z,81.91
2019-01-11T10:24:48.378Z,81.95
2019-01-11T10:27:16.814Z,82.01
2019-01-11T10:29:45.203Z,82.07
2019-01-11T10:32:13.601Z,82.08
2019-01-11T10:34:42.050Z,82.27
2019-01-11T10:37:10.448Z,82.32
2019-01-11T10:39:38.845Z,82.29
2019-01-11T10:42:07.234Z,82.30
2019-01-11T10:44:35.896Z,82.39
2019-01-11T10:47:04.289Z,82.30
2019-01-11T10:49:33.068Z,82.20
2019-01-11T10:52:01.573Z,82.20
2019-01-11T10:54:31.600Z,82.20
2019-01-11T10:57:00.253Z,82.25
2019-01-11T10:59:28.939Z,82.28
2019-01-11T11:01:57.620Z,82.20
2019-01-11T11:04:26.028Z,82.13
2019-01-11T11:06:54.684Z,82.19
2019-01-11T11:09:23.477Z,82.07
2019-01-11T11:11:51.877Z,81.98
2019-01-11T11:14:20.263Z,82.13
2019-01-11T11:16:48.917Z,82.27
2019-01-11T11:19:17.301Z,82.26
2019-01-11T11:21:45.720Z,82.31
2019-01-11T11:24:14.115Z,82.23
2019-01-11T11:26:42.498Z,82.46
2019-01-11T11:29:10.899Z,82.61
2019-01-11T11:31:39.613Z,82.58
2019-01-11T11:34:08.615Z,82.76
2019-01-11T11:36:37.088Z,82.86
2019-01-11T11:39:08.840Z,82.90
2019-01-11T11:41:37.312Z,83.40
2019-01-11T11:44:05.695Z,83.26
2019-01-11T11:46:34.384Z,83.12
2019-01-11T11:49:03.068Z,82.91
2019-01-11T11:51:32.270Z,82.60
2019-01-11T11:54:01.468Z,82.47
2019-01-11T11:56:29.849Z,82.61
2019-01-11T11:58:58.245Z,82.76
2019-01-11T12:01:27.038Z,82.87
2019-01-11T12:03:55.914Z,82.83
2019-01-11T12:06:24.297Z,82.71
2019-01-11T12:08:52.794Z,82.51
2019-01-11T12:11:21.329Z,82.54
2019-01-11T12:13:50.213Z,82.46
2019-01-11T12:16:19.851Z,82.63
2019-01-11T12:18:54.509Z,82.52
2019-01-11T12:21:22.905Z,82.57
2019-01-11T12:23:51.465Z,82.72
2019-01-11T12:26:20.332Z,82.85
2019-01-11T12:28:49.053Z,83.04
2019-01-11T12:31:17.433Z,82.98
2019-01-11T12:33:47.940Z,82.98
2019-01-11T12:36:16.253Z,83.10
2019-01-11T12:38:44.652Z,83.07
2019-01-11T12:41:13.039Z,82.99
2019-01-11T12:43:41.517Z,82.96
2019-01-11T12:46:09.926Z,82.93
2019-01-11T12:48:38.521Z,82.78
2019-01-11T12:51:07.188Z,82.72
2019-01-11T12:53:35.578Z,82.58
2019-01-11T12:56:04.171Z,82.60
2019-01-11T12:58:32.869Z,82.66
2019-01-11T13:01:01.253Z,82.67
2019-01-11T13:03:29.907Z,82.70
2019-01-11T13:05:58.300Z,82.75
2019-01-11T13:08:27.216Z,82.96
2019-01-11T13:10:57.075Z,83.03
2019-01-11T13:13:26.545Z,83.08
2019-01-11T13:15:55.804Z,83.15
2019-01-11T13:18:24.155Z,83.19
2019-01-11T13:20:52.865Z,83.26
2019-01-11T13:23:21.249Z,83.31
2019-01-11T13:25:49.636Z,83.29
2019-01-11T13:28:18.027Z,83.10
2019-01-11T13:30:46.684Z,83.05
2019-01-11T13:33:15.154Z,83.11
2019-01-11T13:35:43.663Z,82.93
2019-01-11T13:38:12.231Z,82.97
2019-01-11T13:40:40.648Z,83.08
2019-01-11T13:43:09.116Z,83.31
2019-01-11T13:45:38.650Z,83.39
2019-01-11T13:48:07.390Z,83.28
2019-01-11T13:50:38.197Z,83.26
2019-01-11T13:53:07.932Z,83.45
2019-01-11T13:55:36.499Z,83.59
2019-01-11T13:58:05.158Z,83.52
2019-01-11T14:00:33.785Z,83.52
2019-01-11T14:03:02.372Z,83.61
2019-01-11T14:05:30.845Z,83.53
2019-01-11T14:07:59.303Z,83.69
2019-01-11T14:10:30.541Z,83.73
2019-01-11T14:12:59.068Z,83.84
2019-01-11T14:15:27.562Z,83.83
2019-01-11T14:17:55.964Z,83.65
2019-01-11T14:20:24.349Z,83.73
2019-01-11T14:22:52.730Z,83.84
2019-01-11T14:25:21.467Z,84.01
2019-01-11T14:27:49.949Z,83.92
2019-01-11T14:30:20.354Z,83.81
2019-01-11T14:32:49.057Z,83.94
2019-01-11T14:35:17.449Z,84.38
2019-01-11T14:37:45.904Z,84.39
2019-01-11T14:40:18.262Z,84.45
2019-01-11T14:42:47.854Z,84.68
2019-01-11T14:45:18.276Z,84.77
2019-01-11T14:47:46.725Z,85.16
2019-01-11T14:50:18.156Z,85.48
2019-01-11T14:52:47.145Z,85.66
2019-01-11T14:55:15.803Z,85.70
2019-01-11T14:57:44.661Z,85.79
2019-01-11T15:00:16.296Z,85.81
2019-01-11T15:02:44.681Z,85.81
2019-01-11T15:05:15.299Z,85.53
2019-01-11T15:07:43.770Z,85.53
2019-01-11T15:10:14.231Z,85.95
2019-01-11T15:12:43.546Z,85.96
2019-01-11T15:15:12.106Z,86.01
2019-01-11T15:17:46.082Z,86.02
2019-01-11T15:20:17.220Z,86.07
2019-01-11T15:22:46.539Z,86.05
2019-01-11T15:25:15.100Z,86.10
2019-01-11T15:27:44.004Z,86.16
2019-01-11T15:30:15.833Z,86.16
2019-01-11T15:32:44.957Z,86.08
2019-01-11T15:35:13.845Z,86.03
2019-01-11T15:37:42.256Z,86.15
2019-01-11T15:40:18.917Z,86.19
2019-01-11T15:42:51.543Z,86.24
2019-01-11T15:45:21.344Z,86.24
2019-01-11T15:47:50.137Z,86.12
2019-01-11T15:50:41.172Z,86.17
2019-01-11T15:53:10.132Z,86.22
2019-01-11T15:55:39.195Z,86.27
2019-01-11T15:58:08.542Z,86.45
2019-01-11T16:00:45.714Z,86.48
2019-01-11T16:03:17.468Z,86.56
2019-01-11T16:05:45.966Z,86.54
2019-01-11T16:08:14.361Z,86.47
2019-01-11T16:11:06.243Z,86.57
2019-01-11T16:13:37.060Z,86.75
2019-01-11T16:16:11.082Z,86.75
2019-01-11T16:18:41.995Z,86.71
2019-01-11T16:21:11.173Z,86.63
2019-01-11T16:23:39.517Z,86.94
2019-01-11T16:26:08.356Z,86.94
2019-01-11T16:28:37.199Z,86.82
2019-01-11T16:31:05.570Z,86.82
2019-01-11T16:33:33.967Z,86.80
2019-01-11T16:36:02.375Z,86.71
2019-01-11T16:38:30.772Z,86.62
2019-01-11T16:40:59.161Z,86.61
2019-01-11T16:43:27.571Z,86.55
2019-01-11T16:45:55.950Z,86.42
2019-01-11T16:48:27.092Z,86.35
2019-01-11T16:50:55.527Z,86.25
2019-01-11T16:53:23.955Z,86.43
2019-01-11T16:55:52.567Z,86.62
2019-01-11T16:58:20.977Z,86.70
2019-01-11T17:00:49.895Z,86.73
2019-01-11T17:03:18.305Z,86.82
2019-01-11T17:05:46.727Z,86.82
2019-01-11T17:08:15.452Z,86.82
2019-01-11T17:10:44.023Z,86.71
2019-01-11T17:13:12.404Z,86.61
2019-01-11T17:15:42.866Z,86.54
2019-01-11T17:18:11.259Z,86.47
2019-01-11T17:20:39.640Z,86.31
2019-01-11T17:23:08.037Z,86.33
2019-01-11T17:25:38.072Z,86.42
2019-01-11T17:28:06.619Z,86.42
2019-01-11T17:30:35.004Z,86.39
2019-01-11T17:33:03.402Z,86.36
2019-01-11T17:35:31.795Z,86.34
2019-01-11T17:38:00.181Z,86.34
2019-01-11T17:40:28.999Z,86.25
2019-01-11T17:42:57.451Z,86.63
2019-01-11T17:45:25.839Z,86.63
2019-01-11T17:47:55.138Z,86.48
2019-01-11T17:50:25.765Z,86.45
2019-01-11T17:52:59.715Z,86.45
2019-01-11T17:55:24.590Z,86.58
2019-01-11T17:57:53.334Z,86.58
2019-01-11T18:00:22.809Z,86.56
2019-01-11T18:02:51.210Z,86.50
2019-01-11T18:05:19.595Z,86.52
2019-01-11T18:07:48.307Z,86.52
2019-01-11T18:10:16.813Z,86.62
2019-01-11T18:12:45.201Z,86.62
2019-01-11T18:15:19.361Z,86.65
2019-01-11T18:17:48.276Z,86.65
2019-01-11T18:20:22.000Z,86.76
2019-01-11T18:22:50.545Z,86.80
2019-01-11T18:25:18.926Z,86.80
2019-01-11T18:27:47.318Z,86.77
2019-01-11T18:30:19.712Z,86.68
2019-01-11T18:32:48.178Z,86.69
2019-01-11T18:35:17.115Z,86.85
2019-01-11T18:37:46.062Z,86.84
2019-01-11T18:40:21.003Z,86.74
2019-01-11T18:42:49.550Z,86.60
2019-01-11T18:45:18.560Z,86.40
2019-01-11T18:47:47.399Z,86.42
2019-01-11T18:50:19.087Z,86.73
2019-01-11T18:52:47.747Z,86.73
2019-01-11T18:55:16.235Z,86.73
2019-01-11T18:57:44.867Z,86.55
2019-01-11T19:00:24.570Z,86.37
2019-01-11T19:02:53.090Z,86.61
2019-01-11T19:05:27.753Z,86.54
2019-01-11T19:07:56.431Z,86.49
2019-01-11T19:10:24.924Z,86.52
2019-01-11T19:12:53.373Z,86.53
2019-01-11T19:15:24.939Z,86.42
2019-01-11T19:17:53.982Z,86.07
2019-01-11T19:20:27.578Z,86.07
2019-01-11T19:22:56.451Z,86.35
2019-01-11T19:25:25.127Z,86.40
2019-01-11T19:27:53.512Z,86.40
2019-01-11T19:30:23.970Z,86.35
2019-01-11T19:32:52.505Z,86.35
2019-01-11T19:35:21.427Z,86.35
2019-01-11T19:37:54.585Z,86.27
2019-01-11T19:40:23.250Z,86.27
2019-01-11T19:42:51.687Z,86.34
2019-01-11T19:45:20.404Z,86.38
2019-01-11T19:47:52.894Z,86.24
2019-01-11T19:50:22.837Z,86.17
2019-01-11T19:52:51.482Z,86.57
2019-01-11T19:55:20.231Z,86.34
2019-01-11T19:57:49.626Z,86.34
2019-01-11T20:00:21.141Z,86.51
2019-01-11T20:02:50.826Z,86.40
2019-01-11T20:05:20.518Z,86.24
2019-01-11T20:07:49.172Z,86.40
2019-01-11T20:10:21.117Z,86.40
2019-01-11T20:12:49.568Z,86.46
2019-01-11T20:15:18.358Z,86.51
2019-01-11T20:17:46.906Z,86.77
2019-01-11T20:20:16.297Z,86.94
2019-01-11T20:22:44.826Z,86.94
2019-01-11T20:25:16.109Z,86.99
2019-01-11T20:27:44.938Z,86.96
2019-01-11T20:30:21.577Z,86.74
2019-01-11T20:32:50.243Z,86.63
2019-01-11T20:35:19.091Z,86.51
2019-01-11T20:37:47.811Z,86.61
2019-01-11T20:40:17.780Z,86.52
2019-01-11T20:42:46.524Z,86.59
2019-01-11T20:45:17.069Z,86.60
2019-01-11T20:47:46.086Z,86.55
2019-01-11T20:50:17.233Z,86.62
2019-01-11T20:52:46.497Z,86.61
2019-01-11T20:55:15.668Z,86.61
2019-01-11T20:57:44.792Z,86.82
2019-01-11T21:00:16.305Z,86.89
2019-01-11T21:02:45.275Z,87.20
2019-01-11T21:05:14.407Z,87.20
2019-01-11T21:07:43.216Z,86.64
2019-01-11T21:10:13.051Z,86.64
2019-01-11T21:12:41.451Z,86.96
2019-01-11T21:15:15.799Z,86.68
2019-01-11T21:17:44.624Z,86.68
2019-01-11T21:20:15.470Z,86.83
2019-01-11T21:22:45.012Z,86.87
2019-01-11T21:25:15.539Z,87.10
2019-01-11T21:27:44.366Z,87.00
2019-01-11T21:30:16.257Z,87.09
2019-01-11T21:32:45.152Z,87.09
2019-01-11T21:35:13.772Z,87.10
2019-01-11T21:37:42.158Z,87.14
2019-01-11T21:40:15.615Z,87.24
2019-01-11T21:42:44.786Z,87.15
2019-01-11T21:45:13.515Z,87.15
2019-01-11T21:47:41.911Z,87.17
2019-01-11T21:50:15.524Z,86.99
2019-01-11T21:52:43.923Z,86.99
2019-01-11T21:55:13.851Z,86.99
2019-01-11T21:57:42.326Z,86.91
2019-01-11T22:00:23.114Z,86.74
2019-01-11T22:02:51.714Z,86.95
2019-01-11T22:05:20.443Z,87.15
2019-01-11T22:07:48.819Z,87.08
2019-01-11T22:10:17.856Z,87.17
2019-01-11T22:12:47.660Z,87.22
2019-01-11T22:15:18.807Z,86.96
2019-01-11T22:17:47.463Z,86.85
2019-01-11T22:20:17.403Z,86.70
2019-01-11T22:22:46.072Z,86.69
2019-01-11T22:25:16.576Z,86.56
2019-01-11T22:27:45.310Z,86.63
2019-01-11T22:30:16.758Z,86.63
2019-01-11T22:32:45.298Z,86.66
2019-01-11T22:35:13.912Z,86.77
2019-01-11T22:37:42.382Z,86.75
2019-01-11T22:40:16.288Z,86.81
2019-01-11T22:42:44.947Z,86.40
2019-01-11T22:45:15.323Z,86.59
2019-01-11T22:47:44.121Z,86.59
2019-01-11T22:50:14.861Z,86.62
2019-01-11T22:52:43.466Z,86.66
2019-01-11T22:55:15.093Z,86.82
2019-01-11T22:57:43.879Z,86.68
2019-01-11T23:00:23.121Z,86.68
2019-01-11T23:02:53.259Z,86.87
2019-01-11T23:05:21.649Z,86.75
2019-01-11T23:07:50.100Z,86.75
2019-01-11T23:10:21.544Z,86.70
2019-01-11T23:12:53.345Z,86.52
2019-01-11T23:15:21.745Z,86.60
2019-01-11T23:17:52.375Z,86.66
2019-01-11T23:20:20.754Z,86.66
2019-01-11T23:22:49.687Z,86.63
2019-01-11T23:25:18.372Z,86.80
2019-01-11T23:27:46.801Z,86.91
2019-01-11T23:30:17.723Z,87.06
2019-01-11T23:32:46.106Z,87.06
2019-01-11T23:35:14.958Z,87.25
2019-01-11T23:37:43.625Z,87.19
2019-01-11T23:40:13.351Z,87.12
2019-01-11T23:42:42.046Z,86.79
2019-01-11T23:45:11.970Z,86.71
2019-01-11T23:47:40.473Z,86.62
2019-01-11T23:50:12.045Z,86.63
2019-01-11T23:52:40.496Z,86.66
2019-01-11T23:55:10.436Z,86.75
2019-01-11T23:57:38.896Z,86.75
